sensor_id;sensor_type;location;lat;lon;timestamp;P1;durP1;ratioP1;P2;durP2;ratioP2
9976;SDS011;5029;47.378;11.776;2022-12-18T00:05:55;10.43;;;7.90;;
9976;SDS011;5029;47.378;11.776;2022-12-18T00:11:04;9.43;;;7.77;;
9976;SDS011;5029;47.378;11.776;2022-12-18T00:16:17;7.93;;;7.00;;
9976;SDS011;5029;47.378;11.776;2022-12-18T00:21:28;9.80;;;7.33;;
9976;SDS011;5029;47.378;11.776;2022-12-18T00:26:36;9.80;;;8.07;;
9976;SDS011;5029;47.378;11.776;2022-12-18T00:31:49;8.70;;;7.30;;
9976;SDS011;5029;47.378;11.776;2022-12-18T00:37:01;11.47;;;7.50;;
9976;SDS011;5029;47.378;11.776;2022-12-18T00:42:10;8.60;;;6.87;;
9976;SDS011;5029;47.378;11.776;2022-12-18T00:47:32;9.63;;;6.93;;
9976;SDS011;5029;47.378;11.776;2022-12-18T00:52:43;8.60;;;7.30;;
9976;SDS011;5029;47.378;11.776;2022-12-18T00:57:52;7.40;;;6.63;;
9976;SDS011;5029;47.378;11.776;2022-12-18T01:02:59;8.57;;;6.47;;
9976;SDS011;5029;47.378;11.776;2022-12-18T01:08:04;8.93;;;6.67;;
9976;SDS011;5029;47.378;11.776;2022-12-18T01:13:13;8.33;;;6.77;;
9976;SDS011;5029;47.378;11.776;2022-12-18T01:18:28;8.53;;;6.93;;
9976;SDS011;5029;47.378;11.776;2022-12-18T01:23:34;8.97;;;6.87;;
9976;SDS011;5029;47.378;11.776;2022-12-18T01:28:42;8.33;;;6.80;;
9976;SDS011;5029;47.378;11.776;2022-12-18T01:33:50;8.80;;;6.37;;
9976;SDS011;5029;47.378;11.776;2022-12-18T01:38:56;8.87;;;7.17;;
9976;SDS011;5029;47.378;11.776;2022-12-18T01:49:40;8.37;;;6.57;;
9976;SDS011;5029;47.378;11.776;2022-12-18T01:54:55;8.07;;;6.53;;
9976;SDS011;5029;47.378;11.776;2022-12-18T02:00:00;7.73;;;6.17;;
9976;SDS011;5029;47.378;11.776;2022-12-18T02:05:13;8.67;;;6.63;;
9976;SDS011;5029;47.378;11.776;2022-12-18T02:15:51;7.80;;;6.33;;
9976;SDS011;5029;47.378;11.776;2022-12-18T02:21:10;8.77;;;6.40;;
9976;SDS011;5029;47.378;11.776;2022-12-18T02:26:32;8.43;;;6.03;;
9976;SDS011;5029;47.378;11.776;2022-12-18T02:32:02;7.60;;;5.77;;
9976;SDS011;5029;47.378;11.776;2022-12-18T02:42:30;7.70;;;5.83;;
9976;SDS011;5029;47.378;11.776;2022-12-18T02:47:43;6.53;;;5.53;;
9976;SDS011;5029;47.378;11.776;2022-12-18T02:52:51;6.80;;;5.83;;
9976;SDS011;5029;47.378;11.776;2022-12-18T02:58:11;6.40;;;4.67;;
9976;SDS011;5029;47.378;11.776;2022-12-18T03:09:02;6.33;;;5.53;;
9976;SDS011;5029;47.378;11.776;2022-12-18T03:14:13;7.10;;;6.00;;
9976;SDS011;5029;47.378;11.776;2022-12-18T03:19:24;6.07;;;5.10;;
9976;SDS011;5029;47.378;11.776;2022-12-18T03:24:31;7.17;;;5.20;;
9976;SDS011;5029;47.378;11.776;2022-12-18T03:29:38;6.73;;;5.43;;
9976;SDS011;5029;47.378;11.776;2022-12-18T03:34:47;6.50;;;4.80;;
9976;SDS011;5029;47.378;11.776;2022-12-18T03:39:53;6.47;;;5.10;;
9976;SDS011;5029;47.378;11.776;2022-12-18T03:45:27;5.37;;;4.30;;
9976;SDS011;5029;47.378;11.776;2022-12-18T03:50:42;5.90;;;4.63;;
9976;SDS011;5029;47.378;11.776;2022-12-18T03:56:07;5.57;;;4.30;;
9976;SDS011;5029;47.378;11.776;2022-12-18T04:01:15;6.30;;;4.47;;
9976;SDS011;5029;47.378;11.776;2022-12-18T04:06:21;6.27;;;4.80;;
9976;SDS011;5029;47.378;11.776;2022-12-18T04:11:34;5.27;;;4.40;;
9976;SDS011;5029;47.378;11.776;2022-12-18T04:16:41;5.20;;;4.27;;
9976;SDS011;5029;47.378;11.776;2022-12-18T04:21:48;4.80;;;3.93;;
9976;SDS011;5029;47.378;11.776;2022-12-18T04:26:55;5.33;;;4.27;;
9976;SDS011;5029;47.378;11.776;2022-12-18T04:32:09;7.23;;;4.30;;
9976;SDS011;5029;47.378;11.776;2022-12-18T04:37:16;6.03;;;4.60;;
9976;SDS011;5029;47.378;11.776;2022-12-18T04:42:36;4.50;;;3.90;;
9976;SDS011;5029;47.378;11.776;2022-12-18T04:47:44;6.30;;;4.77;;
9976;SDS011;5029;47.378;11.776;2022-12-18T04:52:51;5.50;;;4.53;;
9976;SDS011;5029;47.378;11.776;2022-12-18T04:58:05;5.93;;;3.63;;
9976;SDS011;5029;47.378;11.776;2022-12-18T05:03:26;4.57;;;4.10;;
9976;SDS011;5029;47.378;11.776;2022-12-18T05:08:35;5.73;;;4.50;;
9976;SDS011;5029;47.378;11.776;2022-12-18T05:13:46;4.73;;;4.10;;
9976;SDS011;5029;47.378;11.776;2022-12-18T05:18:52;6.40;;;4.83;;
9976;SDS011;5029;47.378;11.776;2022-12-18T05:24:03;5.73;;;4.40;;
9976;SDS011;5029;47.378;11.776;2022-12-18T05:29:15;5.10;;;3.87;;
9976;SDS011;5029;47.378;11.776;2022-12-18T05:34:23;5.20;;;4.20;;
9976;SDS011;5029;47.378;11.776;2022-12-18T05:39:26;4.87;;;3.87;;
9976;SDS011;5029;47.378;11.776;2022-12-18T05:44:33;5.03;;;4.27;;
9976;SDS011;5029;47.378;11.776;2022-12-18T05:49:41;6.03;;;4.10;;
9976;SDS011;5029;47.378;11.776;2022-12-18T05:54:45;5.70;;;4.17;;
9976;SDS011;5029;47.378;11.776;2022-12-18T05:59:51;5.60;;;4.03;;
9976;SDS011;5029;47.378;11.776;2022-12-18T06:05:00;5.33;;;4.27;;
9976;SDS011;5029;47.378;11.776;2022-12-18T06:10:07;9.90;;;5.03;;
9976;SDS011;5029;47.378;11.776;2022-12-18T06:15:12;5.87;;;3.97;;
9976;SDS011;5029;47.378;11.776;2022-12-18T06:20:20;5.80;;;4.40;;
9976;SDS011;5029;47.378;11.776;2022-12-18T06:25:30;5.77;;;4.43;;
9976;SDS011;5029;47.378;11.776;2022-12-18T06:30:37;5.37;;;4.53;;
9976;SDS011;5029;47.378;11.776;2022-12-18T06:35:46;6.33;;;4.23;;
9976;SDS011;5029;47.378;11.776;2022-12-18T06:41:02;4.30;;;3.90;;
9976;SDS011;5029;47.378;11.776;2022-12-18T06:46:10;5.33;;;4.23;;
9976;SDS011;5029;47.378;11.776;2022-12-18T06:51:17;6.80;;;3.80;;
9976;SDS011;5029;47.378;11.776;2022-12-18T06:56:22;5.20;;;3.40;;
9976;SDS011;5029;47.378;11.776;2022-12-18T07:01:26;7.13;;;5.33;;
9976;SDS011;5029;47.378;11.776;2022-12-18T07:06:32;6.67;;;4.87;;
9976;SDS011;5029;47.378;11.776;2022-12-18T07:11:36;15.67;;;12.43;;
9976;SDS011;5029;47.378;11.776;2022-12-18T07:16:40;16.50;;;14.80;;
9976;SDS011;5029;47.378;11.776;2022-12-18T07:21:46;15.47;;;11.70;;
9976;SDS011;5029;47.378;11.776;2022-12-18T07:26:50;7.87;;;6.67;;
9976;SDS011;5029;47.378;11.776;2022-12-18T07:31:59;6.43;;;4.97;;
9976;SDS011;5029;47.378;11.776;2022-12-18T07:37:07;6.50;;;5.67;;
9976;SDS011;5029;47.378;11.776;2022-12-18T07:42:12;6.10;;;4.70;;
9976;SDS011;5029;47.378;11.776;2022-12-18T07:47:36;5.37;;;4.60;;
9976;SDS011;5029;47.378;11.776;2022-12-18T07:52:53;6.00;;;4.97;;
9976;SDS011;5029;47.378;11.776;2022-12-18T07:58:03;8.03;;;7.33;;
9976;SDS011;5029;47.378;11.776;2022-12-18T08:03:07;6.07;;;4.83;;
9976;SDS011;5029;47.378;11.776;2022-12-18T08:08:13;8.57;;;5.53;;
9976;SDS011;5029;47.378;11.776;2022-12-18T08:13:17;7.27;;;6.20;;
9976;SDS011;5029;47.378;11.776;2022-12-18T08:18:21;6.23;;;5.30;;
9976;SDS011;5029;47.378;11.776;2022-12-18T08:23:26;7.23;;;6.43;;
9976;SDS011;5029;47.378;11.776;2022-12-18T08:28:29;5.43;;;4.60;;
9976;SDS011;5029;47.378;11.776;2022-12-18T08:39:11;6.20;;;5.60;;
9976;SDS011;5029;47.378;11.776;2022-12-18T08:44:15;5.43;;;4.50;;
9976;SDS011;5029;47.378;11.776;2022-12-18T08:49:36;5.73;;;4.67;;
9976;SDS011;5029;47.378;11.776;2022-12-18T08:54:41;15.53;;;11.30;;
9976;SDS011;5029;47.378;11.776;2022-12-18T08:59:45;8.03;;;6.27;;
9976;SDS011;5029;47.378;11.776;2022-12-18T09:04:50;6.97;;;5.57;;
9976;SDS011;5029;47.378;11.776;2022-12-18T09:09:59;6.23;;;4.70;;
9976;SDS011;5029;47.378;11.776;2022-12-18T09:15:03;6.33;;;4.77;;
9976;SDS011;5029;47.378;11.776;2022-12-18T09:20:08;6.77;;;5.73;;
9976;SDS011;5029;47.378;11.776;2022-12-18T09:25:14;7.73;;;5.40;;
9976;SDS011;5029;47.378;11.776;2022-12-18T09:30:17;5.67;;;4.73;;
9976;SDS011;5029;47.378;11.776;2022-12-18T09:35:21;4.37;;;3.27;;
9976;SDS011;5029;47.378;11.776;2022-12-18T09:40:27;4.87;;;3.97;;
9976;SDS011;5029;47.378;11.776;2022-12-18T09:45:38;5.10;;;4.03;;
9976;SDS011;5029;47.378;11.776;2022-12-18T09:50:45;5.07;;;3.73;;
9976;SDS011;5029;47.378;11.776;2022-12-18T09:55:51;4.43;;;3.33;;
9976;SDS011;5029;47.378;11.776;2022-12-18T10:00:56;4.27;;;3.40;;
9976;SDS011;5029;47.378;11.776;2022-12-18T10:06:01;4.57;;;3.67;;
9976;SDS011;5029;47.378;11.776;2022-12-18T10:11:20;4.40;;;3.67;;
9976;SDS011;5029;47.378;11.776;2022-12-18T10:16:33;4.63;;;3.73;;
9976;SDS011;5029;47.378;11.776;2022-12-18T10:21:45;5.20;;;4.50;;
9976;SDS011;5029;47.378;11.776;2022-12-18T10:26:56;4.43;;;3.40;;
9976;SDS011;5029;47.378;11.776;2022-12-18T10:32:13;3.20;;;2.90;;
9976;SDS011;5029;47.378;11.776;2022-12-18T10:37:22;3.23;;;2.80;;
9976;SDS011;5029;47.378;11.776;2022-12-18T10:42:28;5.03;;;3.33;;
9976;SDS011;5029;47.378;11.776;2022-12-18T10:47:33;4.30;;;3.27;;
9976;SDS011;5029;47.378;11.776;2022-12-18T10:52:37;3.80;;;2.80;;
9976;SDS011;5029;47.378;11.776;2022-12-18T10:57:47;3.57;;;3.20;;
9976;SDS011;5029;47.378;11.776;2022-12-18T11:02:50;3.97;;;3.00;;
9976;SDS011;5029;47.378;11.776;2022-12-18T11:07:55;3.70;;;3.20;;
9976;SDS011;5029;47.378;11.776;2022-12-18T11:13:12;4.00;;;2.73;;
9976;SDS011;5029;47.378;11.776;2022-12-18T11:18:22;3.40;;;2.67;;
9976;SDS011;5029;47.378;11.776;2022-12-18T11:23:28;4.20;;;2.70;;
9976;SDS011;5029;47.378;11.776;2022-12-18T11:28:37;3.53;;;2.50;;
9976;SDS011;5029;47.378;11.776;2022-12-18T11:33:44;2.90;;;2.47;;
9976;SDS011;5029;47.378;11.776;2022-12-18T11:39:12;4.63;;;2.50;;
9976;SDS011;5029;47.378;11.776;2022-12-18T11:44:22;4.97;;;2.70;;
9976;SDS011;5029;47.378;11.776;2022-12-18T11:49:32;3.07;;;2.23;;
9976;SDS011;5029;47.378;11.776;2022-12-18T11:54:37;2.53;;;2.03;;
9976;SDS011;5029;47.378;11.776;2022-12-18T11:59:43;3.43;;;2.73;;
9976;SDS011;5029;47.378;11.776;2022-12-18T12:05:01;3.07;;;2.43;;
9976;SDS011;5029;47.378;11.776;2022-12-18T12:10:17;2.13;;;1.93;;
9976;SDS011;5029;47.378;11.776;2022-12-18T12:15:38;3.10;;;2.30;;
9976;SDS011;5029;47.378;11.776;2022-12-18T12:20:52;2.90;;;2.50;;
9976;SDS011;5029;47.378;11.776;2022-12-18T12:26:04;2.47;;;1.90;;
9976;SDS011;5029;47.378;11.776;2022-12-18T12:31:16;2.43;;;2.10;;
9976;SDS011;5029;47.378;11.776;2022-12-18T12:36:32;2.97;;;1.83;;
9976;SDS011;5029;47.378;11.776;2022-12-18T12:41:47;4.23;;;3.30;;
9976;SDS011;5029;47.378;11.776;2022-12-18T12:47:11;2.53;;;2.13;;
9976;SDS011;5029;47.378;11.776;2022-12-18T12:52:21;2.57;;;2.07;;
9976;SDS011;5029;47.378;11.776;2022-12-18T12:57:34;2.70;;;2.17;;
9976;SDS011;5029;47.378;11.776;2022-12-18T13:02:47;2.40;;;1.63;;
9976;SDS011;5029;47.378;11.776;2022-12-18T13:07:56;2.17;;;1.80;;
9976;SDS011;5029;47.378;11.776;2022-12-18T13:13:10;1.70;;;1.60;;
9976;SDS011;5029;47.378;11.776;2022-12-18T13:18:22;4.00;;;2.07;;
9976;SDS011;5029;47.378;11.776;2022-12-18T13:23:34;2.33;;;2.00;;
9976;SDS011;5029;47.378;11.776;2022-12-18T13:28:52;1.73;;;1.63;;
9976;SDS011;5029;47.378;11.776;2022-12-18T13:34:00;2.83;;;1.93;;
9976;SDS011;5029;47.378;11.776;2022-12-18T13:39:31;2.00;;;1.50;;
9976;SDS011;5029;47.378;11.776;2022-12-18T13:44:37;2.20;;;1.83;;
9976;SDS011;5029;47.378;11.776;2022-12-18T13:49:45;2.07;;;1.40;;
9976;SDS011;5029;47.378;11.776;2022-12-18T13:54:59;1.80;;;1.40;;
9976;SDS011;5029;47.378;11.776;2022-12-18T14:00:19;3.40;;;1.97;;
9976;SDS011;5029;47.378;11.776;2022-12-18T14:05:52;2.73;;;1.90;;
9976;SDS011;5029;47.378;11.776;2022-12-18T14:11:01;2.00;;;1.60;;
9976;SDS011;5029;47.378;11.776;2022-12-18T14:16:11;2.10;;;1.67;;
9976;SDS011;5029;47.378;11.776;2022-12-18T14:21:19;1.60;;;1.50;;
9976;SDS011;5029;47.378;11.776;2022-12-18T14:26:29;1.57;;;1.47;;
9976;SDS011;5029;47.378;11.776;2022-12-18T14:31:34;2.30;;;1.80;;
9976;SDS011;5029;47.378;11.776;2022-12-18T14:36:41;2.43;;;1.90;;
9976;SDS011;5029;47.378;11.776;2022-12-18T14:41:56;3.43;;;1.80;;
9976;SDS011;5029;47.378;11.776;2022-12-18T14:47:00;5.00;;;2.17;;
9976;SDS011;5029;47.378;11.776;2022-12-18T14:52:06;2.00;;;1.77;;
9976;SDS011;5029;47.378;11.776;2022-12-18T14:57:32;2.43;;;1.90;;
9976;SDS011;5029;47.378;11.776;2022-12-18T15:02:45;2.80;;;2.40;;
9976;SDS011;5029;47.378;11.776;2022-12-18T15:07:55;2.70;;;2.10;;
9976;SDS011;5029;47.378;11.776;2022-12-18T15:13:08;3.13;;;2.13;;
9976;SDS011;5029;47.378;11.776;2022-12-18T15:18:26;3.77;;;2.10;;
9976;SDS011;5029;47.378;11.776;2022-12-18T15:23:38;2.70;;;2.00;;
9976;SDS011;5029;47.378;11.776;2022-12-18T15:28:51;2.23;;;1.90;;
9976;SDS011;5029;47.378;11.776;2022-12-18T15:34:10;2.63;;;2.03;;
9976;SDS011;5029;47.378;11.776;2022-12-18T15:39:18;2.67;;;2.20;;
9976;SDS011;5029;47.378;11.776;2022-12-18T15:44:24;4.63;;;2.60;;
9976;SDS011;5029;47.378;11.776;2022-12-18T15:49:29;4.43;;;2.50;;
9976;SDS011;5029;47.378;11.776;2022-12-18T15:54:35;2.83;;;2.60;;
9976;SDS011;5029;47.378;11.776;2022-12-18T15:59:58;5.80;;;2.73;;
9976;SDS011;5029;47.378;11.776;2022-12-18T16:05:09;2.57;;;2.30;;
9976;SDS011;5029;47.378;11.776;2022-12-18T16:10:26;3.40;;;2.50;;
9976;SDS011;5029;47.378;11.776;2022-12-18T16:15:33;3.13;;;2.80;;
9976;SDS011;5029;47.378;11.776;2022-12-18T16:20:38;3.47;;;2.70;;
9976;SDS011;5029;47.378;11.776;2022-12-18T16:25:45;3.93;;;3.03;;
9976;SDS011;5029;47.378;11.776;2022-12-18T16:30:50;3.80;;;2.93;;
9976;SDS011;5029;47.378;11.776;2022-12-18T16:35:59;3.60;;;2.83;;
9976;SDS011;5029;47.378;11.776;2022-12-18T16:41:14;5.03;;;3.50;;
9976;SDS011;5029;47.378;11.776;2022-12-18T16:46:37;4.63;;;3.40;;
9976;SDS011;5029;47.378;11.776;2022-12-18T16:51:48;4.53;;;3.50;;
9976;SDS011;5029;47.378;11.776;2022-12-18T16:56:56;3.83;;;3.43;;
9976;SDS011;5029;47.378;11.776;2022-12-18T17:02:04;4.80;;;3.60;;
9976;SDS011;5029;47.378;11.776;2022-12-18T17:07:13;6.70;;;4.27;;
9976;SDS011;5029;47.378;11.776;2022-12-18T17:12:25;4.83;;;3.80;;
9976;SDS011;5029;47.378;11.776;2022-12-18T17:17:29;5.63;;;4.77;;
9976;SDS011;5029;47.378;11.776;2022-12-18T17:22:37;5.23;;;3.60;;
9976;SDS011;5029;47.378;11.776;2022-12-18T17:27:44;4.20;;;3.47;;
9976;SDS011;5029;47.378;11.776;2022-12-18T17:32:51;4.67;;;3.53;;
9976;SDS011;5029;47.378;11.776;2022-12-18T17:37:56;13.30;;;12.03;;
9976;SDS011;5029;47.378;11.776;2022-12-18T17:43:03;5.07;;;4.10;;
9976;SDS011;5029;47.378;11.776;2022-12-18T17:48:08;5.10;;;3.63;;
9976;SDS011;5029;47.378;11.776;2022-12-18T17:53:20;7.50;;;6.43;;
9976;SDS011;5029;47.378;11.776;2022-12-18T17:58:27;5.97;;;4.17;;
9976;SDS011;5029;47.378;11.776;2022-12-18T18:03:33;5.50;;;4.77;;
9976;SDS011;5029;47.378;11.776;2022-12-18T18:08:43;5.93;;;4.30;;
9976;SDS011;5029;47.378;11.776;2022-12-18T18:13:50;5.37;;;4.20;;
9976;SDS011;5029;47.378;11.776;2022-12-18T18:19:06;6.97;;;4.23;;
9976;SDS011;5029;47.378;11.776;2022-12-18T18:24:16;6.67;;;4.87;;
9976;SDS011;5029;47.378;11.776;2022-12-18T18:29:26;4.80;;;4.03;;
9976;SDS011;5029;47.378;11.776;2022-12-18T18:34:38;5.90;;;4.60;;
9976;SDS011;5029;47.378;11.776;2022-12-18T18:39:47;5.30;;;4.63;;
9976;SDS011;5029;47.378;11.776;2022-12-18T18:45:00;6.10;;;4.67;;
9976;SDS011;5029;47.378;11.776;2022-12-18T18:50:05;7.60;;;6.80;;
9976;SDS011;5029;47.378;11.776;2022-12-18T18:55:14;7.30;;;5.80;;
9976;SDS011;5029;47.378;11.776;2022-12-18T19:00:27;14.27;;;12.00;;
9976;SDS011;5029;47.378;11.776;2022-12-18T19:05:35;7.70;;;6.33;;
9976;SDS011;5029;47.378;11.776;2022-12-18T19:10:49;7.40;;;5.73;;
9976;SDS011;5029;47.378;11.776;2022-12-18T19:16:03;6.53;;;4.90;;
9976;SDS011;5029;47.378;11.776;2022-12-18T19:21:11;7.50;;;6.20;;
9976;SDS011;5029;47.378;11.776;2022-12-18T19:26:18;6.60;;;5.30;;
9976;SDS011;5029;47.378;11.776;2022-12-18T19:32:10;6.57;;;5.23;;
9976;SDS011;5029;47.378;11.776;2022-12-18T19:37:43;6.63;;;5.50;;
9976;SDS011;5029;47.378;11.776;2022-12-18T19:42:52;6.27;;;5.50;;
9976;SDS011;5029;47.378;11.776;2022-12-18T19:47:58;11.53;;;8.73;;
9976;SDS011;5029;47.378;11.776;2022-12-18T19:53:17;8.20;;;6.63;;
9976;SDS011;5029;47.378;11.776;2022-12-18T19:58:25;20.03;;;14.73;;
9976;SDS011;5029;47.378;11.776;2022-12-18T20:03:46;10.60;;;7.90;;
9976;SDS011;5029;47.378;11.776;2022-12-18T20:08:59;8.33;;;4.93;;
9976;SDS011;5029;47.378;11.776;2022-12-18T20:14:13;7.53;;;4.73;;
9976;SDS011;5029;47.378;11.776;2022-12-18T20:19:30;6.43;;;5.40;;
9976;SDS011;5029;47.378;11.776;2022-12-18T20:24:47;7.93;;;6.23;;
9976;SDS011;5029;47.378;11.776;2022-12-18T20:30:18;6.80;;;5.13;;
9976;SDS011;5029;47.378;11.776;2022-12-18T20:35:35;6.57;;;5.13;;
9976;SDS011;5029;47.378;11.776;2022-12-18T20:40:43;8.03;;;5.53;;
9976;SDS011;5029;47.378;11.776;2022-12-18T20:46:03;15.17;;;11.90;;
9976;SDS011;5029;47.378;11.776;2022-12-18T20:51:19;8.60;;;6.67;;
9976;SDS011;5029;47.378;11.776;2022-12-18T20:56:24;7.87;;;5.50;;
9976;SDS011;5029;47.378;11.776;2022-12-18T21:01:33;12.20;;;9.57;;
9976;SDS011;5029;47.378;11.776;2022-12-18T21:06:46;7.00;;;5.20;;
9976;SDS011;5029;47.378;11.776;2022-12-18T21:12:08;6.30;;;4.87;;
9976;SDS011;5029;47.378;11.776;2022-12-18T21:18:00;6.50;;;5.60;;
9976;SDS011;5029;47.378;11.776;2022-12-18T21:23:06;6.97;;;5.83;;
9976;SDS011;5029;47.378;11.776;2022-12-18T21:28:18;9.40;;;5.20;;
9976;SDS011;5029;47.378;11.776;2022-12-18T21:33:27;7.57;;;6.00;;
9976;SDS011;5029;47.378;11.776;2022-12-18T21:38:32;5.63;;;4.87;;
9976;SDS011;5029;47.378;11.776;2022-12-18T21:43:41;6.73;;;5.10;;
9976;SDS011;5029;47.378;11.776;2022-12-18T21:49:06;6.33;;;5.37;;
9976;SDS011;5029;47.378;11.776;2022-12-18T21:54:16;7.80;;;5.33;;
9976;SDS011;5029;47.378;11.776;2022-12-18T21:59:22;7.20;;;5.60;;
9976;SDS011;5029;47.378;11.776;2022-12-18T22:04:28;7.20;;;5.50;;
9976;SDS011;5029;47.378;11.776;2022-12-18T22:09:36;6.13;;;5.27;;
9976;SDS011;5029;47.378;11.776;2022-12-18T22:14:44;6.40;;;5.10;;
9976;SDS011;5029;47.378;11.776;2022-12-18T22:19:48;5.97;;;4.97;;
9976;SDS011;5029;47.378;11.776;2022-12-18T22:24:55;6.33;;;5.17;;
9976;SDS011;5029;47.378;11.776;2022-12-18T22:30:02;6.73;;;5.27;;
9976;SDS011;5029;47.378;11.776;2022-12-18T22:35:11;6.53;;;4.77;;
9976;SDS011;5029;47.378;11.776;2022-12-18T22:40:18;4.70;;;3.83;;
9976;SDS011;5029;47.378;11.776;2022-12-18T22:45:26;6.00;;;4.43;;
9976;SDS011;5029;47.378;11.776;2022-12-18T22:50:34;7.07;;;5.10;;
9976;SDS011;5029;47.378;11.776;2022-12-18T22:55:43;6.43;;;4.70;;
9976;SDS011;5029;47.378;11.776;2022-12-18T23:00:50;6.13;;;4.60;;
9976;SDS011;5029;47.378;11.776;2022-12-18T23:06:00;6.40;;;5.23;;
9976;SDS011;5029;47.378;11.776;2022-12-18T23:11:10;6.07;;;4.93;;
9976;SDS011;5029;47.378;11.776;2022-12-18T23:16:21;9.77;;;4.97;;
9976;SDS011;5029;47.378;11.776;2022-12-18T23:21:27;4.83;;;4.33;;
9976;SDS011;5029;47.378;11.776;2022-12-18T23:26:32;6.23;;;4.57;;
9976;SDS011;5029;47.378;11.776;2022-12-18T23:31:38;6.93;;;4.67;;
9976;SDS011;5029;47.378;11.776;2022-12-18T23:37:25;7.20;;;5.60;;
9976;SDS011;5029;47.378;11.776;2022-12-18T23:42:53;5.93;;;4.80;;
9976;SDS011;5029;47.378;11.776;2022-12-18T23:48:09;7.27;;;4.80;;
9976;SDS011;5029;47.378;11.776;2022-12-18T23:53:14;6.23;;;4.60;;
9976;SDS011;5029;47.378;11.776;2022-12-18T23:58:23;8.17;;;4.70;;
